Xoxocotlán International Airport (OAX/MMOX)


Airport Information
Location: Oaxaca,
Coordinates: 16.9999 / -96.7266
Field Elevation: 4,987ft
Longest Runway: 8,071ft
ILS Approaches: NO
Landing Fees: $1,008 per flight
Jet A Price: $0.55/lbs

Current Weather
METAR:
Not available
TAF: TAF MMOX 091634Z 0918/1018 17010KT P6SM BKN040 FM100300 35005KT P6SM SCT030 FM101300 30008KT P6SM SKC

No chart available
Flight Arriving
CPX710 MMMX - Benito Juárez International Airport
Mexico Mexico City, Mexico
Flight Aircraft Departing
CPX788
MMMX - Benito Juárez International Airport
Mexico Mexico City, Mexico



Recent Arrivals
Date Flight Type Depart
08/06/2022 CPX788 B738 Benito Juárez Intl (MMMX)
05/29/2022 CPX3133 B738 Benito Juárez Intl (MMMX)
03/09/2022 CPX3133 B738 Benito Juárez Intl (MMMX)
Recent Departures
Date Flight Type Arrive
08/06/2022 CPX710 B738 Benito Juárez Intl (MMMX)
05/31/2022 CPX3134 B738 Benito Juárez Intl (MMMX)
03/09/2022 CPX3134 B738 Benito Juárez Intl (MMMX)